createdAt,value
2019-01-26T00:02:14.136Z,61.47
2019-01-26T00:05:05.014Z,61.27
2019-01-26T00:07:55.258Z,64.03
2019-01-26T00:10:45.674Z,55.40
2019-01-26T00:13:35.945Z,69.57
2019-01-26T00:16:26.507Z,87.87
2019-01-26T00:19:17.261Z,53.17
2019-01-26T00:22:07.257Z,58.10
2019-01-26T00:24:57.430Z,54.83
2019-01-26T00:27:48.029Z,53.83
2019-01-26T00:30:38.138Z,61.33
2019-01-26T00:33:28.129Z,60.57
2019-01-26T00:36:18.509Z,56.80
2019-01-26T00:39:09.750Z,50.57
2019-01-26T00:42:00.871Z,47.27
2019-01-26T00:44:51.090Z,58.30
2019-01-26T00:47:41.926Z,51.60
2019-01-26T00:50:32.026Z,50.30
2019-01-26T00:53:22.305Z,53.20
2019-01-26T00:56:12.806Z,42.33
2019-01-26T00:59:03.107Z,40.70
2019-01-26T01:01:53.446Z,46.67
2019-01-26T01:04:43.406Z,47.00
2019-01-26T01:07:33.446Z,47.10
2019-01-26T01:10:23.590Z,45.17
2019-01-26T01:13:13.743Z,56.37
2019-01-26T01:16:03.826Z,47.07
2019-01-26T01:18:53.837Z,44.97
2019-01-26T01:21:44.050Z,42.93
2019-01-26T01:24:34.354Z,53.63
2019-01-26T01:27:24.699Z,52.57
2019-01-26T01:30:18.017Z,55.63
2019-01-26T01:33:08.370Z,60.20
2019-01-26T01:35:58.357Z,53.60
2019-01-26T01:38:48.566Z,53.93
2019-01-26T01:41:38.845Z,53.37
2019-01-26T01:44:29.266Z,55.63
2019-01-26T01:47:19.594Z,57.20
2019-01-26T01:50:10.958Z,45.77
2019-01-26T01:53:01.082Z,54.30
2019-01-26T01:55:51.470Z,55.63
2019-01-26T01:58:41.392Z,59.60
2019-01-26T02:01:31.557Z,64.73
2019-01-26T02:04:22.118Z,68.97
2019-01-26T02:07:12.164Z,64.63
2019-01-26T02:10:02.233Z,67.37
2019-01-26T02:12:52.759Z,69.17
2019-01-26T02:15:43.626Z,69.80
2019-01-26T02:18:33.914Z,81.37
2019-01-26T02:21:23.941Z,81.33
2019-01-26T02:24:14.119Z,84.50
2019-01-26T02:27:04.177Z,114.10
2019-01-26T02:29:54.617Z,148.07
2019-01-26T02:32:44.914Z,125.20
2019-01-26T02:35:35.302Z,128.20
2019-01-26T02:38:25.484Z,119.73
2019-01-26T02:41:16.133Z,106.93
2019-01-26T02:44:06.355Z,86.40
2019-01-26T02:46:58.100Z,90.07
2019-01-26T02:49:48.309Z,81.37
2019-01-26T02:52:38.386Z,112.37
2019-01-26T02:55:28.713Z,82.87
2019-01-26T02:58:19.005Z,82.20
2019-01-26T03:01:09.818Z,125.00
2019-01-26T03:03:59.907Z,70.37
2019-01-26T03:06:49.982Z,107.07
2019-01-26T03:09:40.097Z,78.67
2019-01-26T03:12:30.558Z,65.60
2019-01-26T03:15:22.024Z,77.63
2019-01-26T03:18:12.567Z,103.47
2019-01-26T03:21:02.890Z,67.30
2019-01-26T03:23:53.187Z,71.30
2019-01-26T03:26:43.420Z,66.67
2019-01-26T03:29:33.670Z,74.40
2019-01-26T03:32:23.885Z,68.40
2019-01-26T03:35:13.813Z,64.50
2019-01-26T03:38:04.142Z,76.10
2019-01-26T03:40:54.799Z,82.10
2019-01-26T03:43:45.267Z,84.87
2019-01-26T03:46:35.874Z,69.23
2019-01-26T03:49:26.095Z,68.17
2019-01-26T03:52:16.159Z,62.70
2019-01-26T03:55:07.765Z,68.30
2019-01-26T03:57:58.154Z,59.93
2019-01-26T04:00:48.475Z,72.37
2019-01-26T04:03:38.594Z,82.90
2019-01-26T04:06:29.272Z,68.50
2019-01-26T04:09:19.270Z,57.80
2019-01-26T04:12:09.818Z,62.77
2019-01-26T04:15:00.014Z,61.30
2019-01-26T04:17:50.465Z,76.67
2019-01-26T04:20:40.332Z,74.77
2019-01-26T04:23:30.902Z,71.63
2019-01-26T04:26:20.853Z,71.00
2019-01-26T04:29:11.530Z,61.47
2019-01-26T04:32:01.527Z,74.07
2019-01-26T04:34:51.857Z,69.60
2019-01-26T04:37:42.343Z,64.00
2019-01-26T04:40:32.872Z,58.27
2019-01-26T04:43:23.362Z,58.97
2019-01-26T04:46:13.862Z,63.97
2019-01-26T04:49:04.151Z,66.57
2019-01-26T04:51:54.102Z,78.03
2019-01-26T04:54:44.017Z,75.77
2019-01-26T04:57:34.674Z,68.07
2019-01-26T05:00:26.714Z,61.53
2019-01-26T05:03:16.745Z,64.30
2019-01-26T05:06:06.997Z,78.67
2019-01-26T05:08:57.228Z,60.63
2019-01-26T05:11:47.997Z,69.03
2019-01-26T05:14:38.724Z,90.73
2019-01-26T05:17:28.746Z,70.67
2019-01-26T05:20:24.504Z,93.70
2019-01-26T05:23:14.856Z,92.37
2019-01-26T05:26:06.277Z,94.40
2019-01-26T05:28:56.599Z,87.93
2019-01-26T05:31:47.471Z,86.43
2019-01-26T05:34:37.436Z,87.03
2019-01-26T05:37:28.261Z,88.63
2019-01-26T05:40:18.885Z,75.57
2019-01-26T05:43:09.130Z,66.87
2019-01-26T05:45:59.513Z,67.67
2019-01-26T05:48:49.741Z,71.23
2019-01-26T05:51:39.971Z,70.43
2019-01-26T05:54:30.347Z,64.37
2019-01-26T05:57:20.619Z,61.57
2019-01-26T06:00:15.071Z,63.40
2019-01-26T06:03:05.315Z,56.37
2019-01-26T06:05:55.418Z,55.33
2019-01-26T06:08:45.513Z,50.87
2019-01-26T06:11:35.738Z,50.53
2019-01-26T06:14:26.102Z,36.87
2019-01-26T06:17:16.530Z,36.43
2019-01-26T06:20:08.025Z,43.10
2019-01-26T06:22:57.990Z,38.83
2019-01-26T06:25:48.442Z,32.43
2019-01-26T06:28:38.534Z,38.87
2019-01-26T06:31:28.894Z,38.33
2019-01-26T06:34:19.274Z,33.27
2019-01-26T06:37:09.479Z,33.67
2019-01-26T06:39:59.493Z,33.90
2019-01-26T06:42:49.962Z,34.10
2019-01-26T06:45:41.047Z,28.87
2019-01-26T06:48:31.423Z,37.00
2019-01-26T06:51:21.766Z,36.27
2019-01-26T06:54:11.688Z,32.27
2019-01-26T06:57:01.979Z,43.70
2019-01-26T06:59:52.185Z,42.50
2019-01-26T07:02:42.614Z,63.67
2019-01-26T07:05:56.221Z,52.10
2019-01-26T07:08:46.186Z,58.47
2019-01-26T07:11:36.710Z,54.37
2019-01-26T07:14:27.634Z,73.43
2019-01-26T07:17:18.725Z,67.93
2019-01-26T07:20:10.058Z,44.83
2019-01-26T07:23:01.319Z,42.73
2019-01-26T07:25:51.987Z,58.20
2019-01-26T07:28:42.934Z,55.40
2019-01-26T07:31:33.152Z,54.47
2019-01-26T07:34:24.162Z,57.03
2019-01-26T07:37:14.377Z,54.47
2019-01-26T07:40:04.946Z,58.20
2019-01-26T07:42:55.053Z,49.13
2019-01-26T07:45:45.297Z,99.20
2019-01-26T07:48:35.397Z,89.50
2019-01-26T07:51:25.468Z,50.33
2019-01-26T07:54:15.665Z,52.80
2019-01-26T07:57:05.805Z,39.40
2019-01-26T07:59:56.616Z,42.13
2019-01-26T08:02:46.690Z,39.30
2019-01-26T08:05:37.234Z,39.57
2019-01-26T08:08:27.277Z,39.77
2019-01-26T08:11:17.325Z,29.37
2019-01-26T08:14:09.135Z,32.30
2019-01-26T08:16:59.076Z,41.90
2019-01-26T08:19:49.246Z,41.50
2019-01-26T08:22:39.669Z,41.37
2019-01-26T08:25:29.881Z,36.67
2019-01-26T08:28:19.870Z,36.97
2019-01-26T08:31:11.773Z,40.80
2019-01-26T08:34:02.170Z,31.13
2019-01-26T08:36:52.873Z,39.27
2019-01-26T08:39:42.973Z,33.97
2019-01-26T08:42:33.009Z,34.13
2019-01-26T08:45:23.421Z,34.80
2019-01-26T08:48:13.711Z,39.00
2019-01-26T08:51:03.929Z,34.10
2019-01-26T08:53:54.353Z,28.47
2019-01-26T08:56:44.584Z,36.00
2019-01-26T08:59:34.623Z,31.40
2019-01-26T09:02:43.653Z,30.00
2019-01-26T09:05:38.709Z,34.80
2019-01-26T09:08:29.058Z,37.03
2019-01-26T09:11:20.791Z,30.53
2019-01-26T09:14:11.212Z,35.37
2019-01-26T09:17:01.113Z,31.70
2019-01-26T09:19:51.825Z,29.03
2019-01-26T09:22:42.025Z,32.33
2019-01-26T09:25:32.289Z,29.43
2019-01-26T09:28:22.294Z,25.47
2019-01-26T09:31:12.629Z,24.10
2019-01-26T09:34:02.914Z,25.50
2019-01-26T09:36:53.294Z,21.23
2019-01-26T09:39:43.934Z,18.67
2019-01-26T09:42:34.338Z,16.87
2019-01-26T09:45:24.633Z,20.10
2019-01-26T09:48:14.802Z,14.17
2019-01-26T09:51:05.465Z,12.87
2019-01-26T09:53:55.438Z,15.20
2019-01-26T09:56:45.642Z,16.17
2019-01-26T09:59:36.190Z,9.77
2019-01-26T10:02:26.466Z,13.00
2019-01-26T10:05:16.739Z,8.27
2019-01-26T10:08:07.091Z,8.90
2019-01-26T10:10:57.197Z,8.13
2019-01-26T10:13:47.690Z,10.50
2019-01-26T10:16:37.704Z,7.30
2019-01-26T10:19:27.906Z,7.23
2019-01-26T10:22:18.149Z,8.07
2019-01-26T10:25:09.901Z,12.10
2019-01-26T10:28:00.137Z,7.57
2019-01-26T10:30:53.981Z,10.40
2019-01-26T10:33:44.658Z,7.20
2019-01-26T10:36:57.706Z,6.67
2019-01-26T10:39:47.726Z,4.87
2019-01-26T10:42:37.677Z,11.10
2019-01-26T10:45:29.080Z,6.83
2019-01-26T10:48:19.303Z,5.37
2019-01-26T10:51:09.366Z,9.27
2019-01-26T10:53:59.692Z,13.67
2019-01-26T10:56:49.819Z,8.10
2019-01-26T10:59:40.137Z,7.33
2019-01-26T11:02:30.535Z,5.40
2019-01-26T11:05:21.006Z,6.47
2019-01-26T11:08:11.345Z,5.10
2019-01-26T11:11:01.346Z,4.97
2019-01-26T11:13:51.618Z,6.67
2019-01-26T11:16:41.790Z,6.77
2019-01-26T11:19:32.141Z,4.03
2019-01-26T11:22:22.385Z,7.47
2019-01-26T11:25:12.636Z,5.73
2019-01-26T11:28:02.917Z,3.30
2019-01-26T11:30:53.386Z,5.03
2019-01-26T11:33:44.991Z,4.07
2019-01-26T11:36:35.194Z,4.37
2019-01-26T11:39:25.512Z,6.80
2019-01-26T11:42:15.853Z,5.83
2019-01-26T11:45:29.773Z,3.30
2019-01-26T11:48:23.046Z,5.23
2019-01-26T11:51:32.269Z,4.90
2019-01-26T11:54:22.274Z,7.27
2019-01-26T11:57:20.683Z,5.00
2019-01-26T12:00:36.310Z,5.77
2019-01-26T12:03:51.437Z,6.43
2019-01-26T12:06:47.134Z,5.43
2019-01-26T12:09:37.234Z,7.77
2019-01-26T12:12:27.381Z,7.40
2019-01-26T12:15:17.413Z,4.13
2019-01-26T12:18:07.464Z,6.57
2019-01-26T12:20:57.451Z,4.30
2019-01-26T12:23:48.072Z,7.97
2019-01-26T12:26:38.589Z,4.57
2019-01-26T12:29:28.983Z,5.90
2019-01-26T12:32:19.298Z,3.57
2019-01-26T12:35:11.337Z,4.93
2019-01-26T12:38:01.394Z,2.50
2019-01-26T12:40:51.978Z,7.90
2019-01-26T12:43:42.317Z,3.10
2019-01-26T12:46:32.269Z,4.00
2019-01-26T12:49:29.313Z,5.40
2019-01-26T12:52:14.562Z,4.43
2019-01-26T12:55:04.918Z,6.43
2019-01-26T12:57:55.862Z,3.27
2019-01-26T13:00:46.013Z,12.20
2019-01-26T13:03:36.341Z,7.37
2019-01-26T13:06:26.491Z,39.27
2019-01-26T13:09:16.413Z,3.70
2019-01-26T13:12:06.377Z,5.33
2019-01-26T13:14:57.606Z,6.03
2019-01-26T13:17:48.062Z,7.17
2019-01-26T13:20:38.426Z,5.53
2019-01-26T13:23:28.629Z,7.10
2019-01-26T13:26:18.859Z,3.97
2019-01-26T13:29:09.180Z,2.10
2019-01-26T13:31:59.816Z,3.77
2019-01-26T13:34:49.878Z,7.37
2019-01-26T13:37:40.117Z,4.67
2019-01-26T13:40:30.172Z,3.53
2019-01-26T13:43:20.290Z,3.73
2019-01-26T13:46:11.609Z,1.97
2019-01-26T13:49:01.531Z,2.60
2019-01-26T13:51:52.089Z,4.43
2019-01-26T13:54:42.146Z,18.07
2019-01-26T13:57:34.010Z,4.40
2019-01-26T14:00:27.159Z,2.10
2019-01-26T14:03:17.193Z,4.93
2019-01-26T14:06:07.665Z,4.63
2019-01-26T14:08:58.300Z,4.03
2019-01-26T14:11:48.707Z,6.73
2019-01-26T14:14:38.926Z,15.50
2019-01-26T14:17:29.206Z,2.13
2019-01-26T14:20:21.294Z,5.43
2019-01-26T14:23:11.255Z,2.23
2019-01-26T14:26:01.547Z,3.67
2019-01-26T14:28:51.875Z,3.87
2019-01-26T14:31:42.542Z,3.10
2019-01-26T14:34:33.494Z,3.57
2019-01-26T14:37:23.777Z,4.70
2019-01-26T14:40:14.194Z,2.53
2019-01-26T14:43:04.830Z,3.57
2019-01-26T14:45:56.269Z,3.90
2019-01-26T14:48:46.546Z,4.53
2019-01-26T14:51:36.542Z,2.00
2019-01-26T14:54:26.745Z,4.40
2019-01-26T14:57:16.657Z,1.90
2019-01-26T15:00:12.769Z,4.73
2019-01-26T15:03:03.093Z,6.33
2019-01-26T15:05:53.078Z,2.07
2019-01-26T15:08:43.326Z,7.97
2019-01-26T15:11:33.529Z,5.57
2019-01-26T15:14:24.823Z,3.03
2019-01-26T15:17:15.527Z,5.60
2019-01-26T15:20:07.257Z,5.10
2019-01-26T15:22:57.406Z,3.60
2019-01-26T15:25:47.578Z,3.70
2019-01-26T15:28:42.950Z,3.20
2019-01-26T15:31:29.234Z,9.60
2019-01-26T15:34:19.527Z,6.73
2019-01-26T15:37:09.868Z,5.30
2019-01-26T15:40:00.246Z,7.63
2019-01-26T15:42:50.333Z,6.43
2019-01-26T15:45:43.454Z,7.57
2019-01-26T15:48:33.762Z,6.07
2019-01-26T15:51:23.838Z,12.40
2019-01-26T15:54:13.938Z,5.47
2019-01-26T15:57:04.278Z,11.30
2019-01-26T15:59:54.646Z,5.77
2019-01-26T16:02:45.279Z,4.33
2019-01-26T16:05:35.279Z,7.63
2019-01-26T16:08:26.294Z,3.57
2019-01-26T16:11:16.610Z,15.70
2019-01-26T16:14:07.051Z,3.03
2019-01-26T16:16:57.061Z,8.47
2019-01-26T16:19:47.322Z,6.27
2019-01-26T16:22:38.446Z,5.83
2019-01-26T16:25:28.719Z,3.10
2019-01-26T16:28:19.304Z,2.63
2019-01-26T16:31:09.561Z,3.10
2019-01-26T16:33:59.601Z,2.27
2019-01-26T16:36:49.874Z,4.13
2019-01-26T16:39:39.779Z,5.43
2019-01-26T16:42:29.758Z,4.07
2019-01-26T16:45:22.723Z,2.33
2019-01-26T16:48:14.942Z,2.60
2019-01-26T16:51:04.984Z,3.40
2019-01-26T16:53:55.269Z,6.20
2019-01-26T16:56:45.649Z,6.63
2019-01-26T16:59:35.748Z,6.27
2019-01-26T17:02:26.128Z,5.13
2019-01-26T17:05:16.539Z,6.53
2019-01-26T17:08:07.265Z,6.43
2019-01-26T17:10:57.246Z,9.00
2019-01-26T17:13:47.526Z,9.30
2019-01-26T17:16:37.791Z,8.90
2019-01-26T17:19:27.825Z,10.07
2019-01-26T17:22:18.070Z,10.17
2019-01-26T17:25:08.222Z,9.97
2019-01-26T17:27:58.618Z,10.60
2019-01-26T17:30:48.968Z,13.77
2019-01-26T17:33:39.726Z,10.13
2019-01-26T17:36:29.933Z,9.83
2019-01-26T17:39:20.138Z,8.40
2019-01-26T17:42:10.225Z,10.93
2019-01-26T17:45:00.586Z,9.53
2019-01-26T17:47:51.066Z,8.27
2019-01-26T17:50:42.410Z,8.03
2019-01-26T17:53:32.656Z,9.20
2019-01-26T17:56:22.589Z,13.50
2019-01-26T17:59:13.045Z,8.70
2019-01-26T18:02:03.457Z,7.70
2019-01-26T18:04:53.953Z,10.33
2019-01-26T18:07:44.321Z,8.03
2019-01-26T18:10:34.718Z,6.57
2019-01-26T18:13:24.809Z,12.20
2019-01-26T18:16:15.114Z,8.80
2019-01-26T18:19:05.994Z,9.40
2019-01-26T18:21:56.228Z,5.87
2019-01-26T18:24:47.417Z,5.13
2019-01-26T18:27:37.741Z,4.90
2019-01-26T18:30:28.185Z,4.47
2019-01-26T18:33:18.622Z,7.10
2019-01-26T18:36:08.810Z,4.37
2019-01-26T18:38:59.142Z,3.40
2019-01-26T18:41:50.352Z,7.67
2019-01-26T18:44:40.398Z,5.93
2019-01-26T18:47:30.707Z,4.20
2019-01-26T18:50:26.096Z,5.93
2019-01-26T18:53:16.395Z,4.87
2019-01-26T18:56:06.466Z,8.40
2019-01-26T18:58:56.894Z,5.40
2019-01-26T19:01:47.123Z,4.00
2019-01-26T19:04:46.894Z,9.23
2019-01-26T19:07:36.986Z,5.97
2019-01-26T19:10:27.153Z,8.33
2019-01-26T19:13:17.454Z,6.77
2019-01-26T19:16:07.618Z,7.30
2019-01-26T19:18:58.041Z,3.97
2019-01-26T19:21:48.294Z,7.70
2019-01-26T19:24:38.610Z,3.53
2019-01-26T19:27:28.921Z,4.73
2019-01-26T19:30:21.818Z,5.73
2019-01-26T19:33:11.961Z,6.43
2019-01-26T19:36:02.330Z,4.37
2019-01-26T19:38:53.238Z,5.23
2019-01-26T19:41:44.026Z,5.07
2019-01-26T19:44:34.649Z,4.37
2019-01-26T19:47:25.442Z,6.63
2019-01-26T19:50:19.126Z,4.87
2019-01-26T19:53:09.398Z,3.13
2019-01-26T19:55:59.892Z,2.43
2019-01-26T19:58:50.223Z,2.87
2019-01-26T20:01:40.511Z,9.90
2019-01-26T20:04:30.602Z,3.53
2019-01-26T20:07:22.229Z,6.00
2019-01-26T20:10:14.233Z,4.23
2019-01-26T20:13:04.917Z,3.00
2019-01-26T20:15:55.166Z,2.70
2019-01-26T20:18:45.449Z,3.57
2019-01-26T20:21:35.833Z,3.17
2019-01-26T20:24:25.863Z,4.03
2019-01-26T20:27:15.898Z,4.63
2019-01-26T20:30:08.666Z,7.30
2019-01-26T20:32:58.974Z,3.20
2019-01-26T20:35:49.197Z,4.17
2019-01-26T20:38:39.514Z,4.73
2019-01-26T20:41:29.784Z,5.23
2019-01-26T20:44:20.970Z,4.80
2019-01-26T20:47:11.033Z,4.80
2019-01-26T20:50:01.359Z,4.93
2019-01-26T20:52:51.841Z,4.47
2019-01-26T20:55:42.005Z,2.73
2019-01-26T20:58:32.267Z,3.47
2019-01-26T21:01:22.486Z,5.83
2019-01-26T21:04:12.806Z,3.90
2019-01-26T21:07:03.058Z,4.37
2019-01-26T21:09:53.074Z,3.23
2019-01-26T21:12:43.562Z,3.20
2019-01-26T21:15:33.898Z,3.40
2019-01-26T21:18:24.346Z,3.97
2019-01-26T21:21:15.000Z,5.33
2019-01-26T21:24:06.329Z,5.73
2019-01-26T21:26:57.831Z,3.33
2019-01-26T21:29:47.990Z,4.10
2019-01-26T21:32:38.173Z,3.00
2019-01-26T21:35:28.542Z,3.87
2019-01-26T21:38:18.805Z,3.43
2019-01-26T21:41:09.065Z,4.90
2019-01-26T21:43:59.278Z,2.67
2019-01-26T21:46:49.548Z,2.57
2019-01-26T21:49:39.593Z,3.77
2019-01-26T21:52:30.067Z,2.47
2019-01-26T21:55:20.293Z,3.40
2019-01-26T21:58:10.409Z,2.40
2019-01-26T22:01:01.090Z,3.53
2019-01-26T22:03:51.390Z,3.07
2019-01-26T22:06:41.502Z,2.03
2019-01-26T22:09:31.818Z,4.83
2019-01-26T22:12:22.185Z,2.57
2019-01-26T22:15:14.202Z,3.23
2019-01-26T22:18:04.677Z,2.90
2019-01-26T22:20:54.790Z,1.70
2019-01-26T22:23:45.341Z,3.23
2019-01-26T22:26:36.947Z,1.87
2019-01-26T22:29:31.245Z,1.90
2019-01-26T22:32:19.437Z,2.53
2019-01-26T22:35:09.937Z,2.73
2019-01-26T22:37:59.890Z,3.50
2019-01-26T22:40:49.829Z,3.30
2019-01-26T22:43:39.787Z,4.20
2019-01-26T22:46:29.974Z,3.60
2019-01-26T22:49:20.234Z,4.13
2019-01-26T22:52:11.836Z,3.70
2019-01-26T22:55:02.642Z,3.10
2019-01-26T22:57:53.713Z,3.10
2019-01-26T23:00:57.390Z,2.83
2019-01-26T23:04:13.590Z,2.90
2019-01-26T23:07:36.670Z,3.30
2019-01-26T23:10:49.507Z,1.60
2019-01-26T23:14:19.830Z,2.70
2019-01-26T23:17:39.517Z,1.73
2019-01-26T23:20:45.855Z,2.57
2019-01-26T23:24:09.030Z,1.90
2019-01-26T23:27:55.745Z,3.73
2019-01-26T23:31:14.554Z,1.87
2019-01-26T23:34:04.537Z,2.37
2019-01-26T23:36:54.929Z,2.20
2019-01-26T23:39:45.845Z,2.03
2019-01-26T23:42:36.005Z,1.97
2019-01-26T23:45:26.198Z,2.60
2019-01-26T23:48:16.549Z,4.10
2019-01-26T23:51:06.594Z,0.97
2019-01-26T23:53:56.510Z,3.33
2019-01-26T23:56:46.697Z,1.03
2019-01-26T23:59:36.957Z,3.50
